logo dgac
Martes 28 de Mayo del 2024
Buscar por aerodromo o helipuerto
Ingrese nombre de aeródromo, localidad o designador OACI:

Aeródromo: Rodelillo (PUB) (SCRD)

Ubicación: Valparaiso, V Región, Chile (33º 04' 06'' S, 71º 33' 27'' W) Ver ubicación en el mapa

Pistas

Luces
Orientación Dimensión Pendiente Superficie Resistencia APCH THR RWY PAPI
01/19 850 x 20 1,00 ASPH 10.000 Kg No No No No
Horas de operación HJ
Elevación 335 m / 1100 ft
Otra Información Adm : Edwin Alegría Farías
Uso : PUB
TEL Club Aéreo Valparaíso-Viña del Mar: +56322611677
CEL: +56995440569
Email: operaciones@cavv.cl
clubaereovalparaiso@cavv.cl
TEL AVGAS +56933782065 +56995440569

TEL DGAC
Aeródromo 224363586
AFIS/ARO CEL +56 942883086
JEFE AD CEL +56 999011519 (Coordinar exámenes teóricos)
email : aro.rodelillo@dgac.gob.cl

Ubicado a 6 km al E de Valparaíso.

Otra información ver AIP-Chile Volumen I AD 3.9-20.2-V
CCCM/FCCV Descargar CCCM/FCCV
andera de Chile
Mapa de Rodelillo (PUB) (SCRD)

Último METAR

METAR SCRD 272200Z 16008KT CAVOK 14/08 Q1017

Último TAF

No hay tafs registrados para este aeródromo

Últimas fotos cámaras

Imagen aerodromo Rodelillo (PUB) (SCRD) Sur tomada el 28-05-2024 08:10:01 Imagen aerodromo Rodelillo (PUB) (SCRD) Norte tomada el 28-05-2024 08:02:59

Último NOTAM

C1952/24 NOTAMN Q)SCEZ/QSFAH/IV/B/A/000/999/3304S07133W005 A)SCRD B)2405051340 C)2407252230 D)DLY BTN 1230-FCCV E)AFIS HR ATTN